PWSweather.com
Personal Weather Stations
Station Observations
WD4JKH
Forsyth, GA 31029

Forsyth, GA 31029

Lat: 33.033225, Lon: -83.927995

Elevation: 709

Station Type: Davis Vantage VUE

High Low Average
Temperature 81.1°F27.3°C 58.6°F14.8°C 70.6°F21.4°C
Dew Point 62.2°F16.8°C 56.5°F13.6°C 59.1°F15.1°C
Winds 5.6 mph 9.0 kmh Calm Calm 2.0 mph SW3.2 kmh SW
Wind Gusts 10.0 mph16.1 kmh -- 5.0 mph8.0 kmh
Humidity 93% 47% 69%
Pressure 30.06 in1017.9 mb 29.87 in1011.5 mb -
Precipitation 0.00 in0.0 mm - -
Hour Temp Dew Point Humidity Winds Wind Gusts Pressure Precip Precip Rate Daily Precip Total
12:01 AM 66.6°F19.2°C 60.3°F15.7°C 80% 2.7 mph NW4.3 kmh NW 5.0 mph8.0 kmh 29.88 in1011.9 mb 0.00 in0.0 mm 0.00 in0.0 mm 0.16 in4.1 mm
12:06 AM 66.6°F19.2°C 60.3°F15.7°C 80% 2.0 mph NW3.2 kmh NW 6.0 mph9.7 kmh 29.88 in1011.9 mb 0.00 in0.0 mm 0.00 in0.0 mm 0.00 in0.0 mm
12:11 AM 66.5°F19.2°C 60.2°F15.7°C 80% 2.8 mph NW4.5 kmh NW 7.0 mph11.3 kmh 29.88 in1011.9 mb 0.00 in0.0 mm 0.00 in0.0 mm 0.00 in0.0 mm
12:16 AM 66.4°F19.1°C 60.0°F15.6°C 80% 1.9 mph WNW3.1 kmh WNW 7.0 mph11.3 kmh 29.88 in1011.9 mb 0.00 in0.0 mm 0.00 in0.0 mm 0.00 in0.0 mm
12:21 AM 66.4°F19.1°C 60.0°F15.6°C 80% 2.5 mph WNW4.0 kmh WNW 7.0 mph11.3 kmh 29.88 in1011.9 mb 0.00 in0.0 mm 0.00 in0.0 mm 0.00 in0.0 mm
12:26 AM 66.3°F19.1°C 59.9°F15.5°C 80% 3.0 mph WNW4.8 kmh WNW 8.0 mph12.9 kmh 29.88 in1011.9 mb 0.00 in0.0 mm 0.00 in0.0 mm 0.00 in0.0 mm
12:31 AM 66.1°F18.9°C 60.1°F15.6°C 81% 2.4 mph NW3.9 kmh NW 8.0 mph12.9 kmh 29.88 in1011.9 mb 0.00 in0.0 mm 0.00 in0.0 mm 0.00 in0.0 mm
12:36 AM 65.9°F18.8°C 59.9°F15.5°C 81% 1.8 mph NW2.9 kmh NW 8.0 mph12.9 kmh 29.88 in1011.9 mb 0.00 in0.0 mm 0.00 in0.0 mm 0.00 in0.0 mm
12:41 AM 65.8°F18.8°C 59.8°F15.4°C 81% 1.9 mph NW3.1 kmh NW 7.0 mph11.3 kmh 29.88 in1011.9 mb 0.00 in0.0 mm 0.00 in0.0 mm 0.00 in0.0 mm
12:46 AM 65.7°F18.7°C 59.7°F15.4°C 81% 3.2 mph WNW5.1 kmh WNW 7.0 mph11.3 kmh 29.88 in1011.9 mb 0.00 in0.0 mm 0.00 in0.0 mm 0.00 in0.0 mm
12:51 AM 65.5°F18.6°C 59.5°F15.3°C 81% 2.0 mph NW3.2 kmh NW 7.0 mph11.3 kmh 29.88 in1011.9 mb 0.00 in0.0 mm 0.00 in0.0 mm 0.00 in0.0 mm
12:56 AM 65.4°F18.6°C 59.8°F15.4°C 82% 2.8 mph NW4.5 kmh NW 7.0 mph11.3 kmh 29.88 in1011.9 mb 0.00 in0.0 mm 0.00 in0.0 mm 0.00 in0.0 mm
01:01 AM 65.4°F18.6°C 59.8°F15.4°C 82% 2.1 mph WNW3.4 kmh WNW 7.0 mph11.3 kmh 29.88 in1011.9 mb 0.00 in0.0 mm 0.00 in0.0 mm 0.00 in0.0 mm
01:06 AM 65.2°F18.4°C 59.6°F15.3°C 82% 2.3 mph NW3.7 kmh NW 5.0 mph8.0 kmh 29.88 in1011.9 mb 0.00 in0.0 mm 0.00 in0.0 mm 0.00 in0.0 mm
01:11 AM 65.1°F18.4°C 59.5°F15.3°C 82% 1.8 mph NW2.9 kmh NW 5.0 mph8.0 kmh 29.88 in1011.9 mb 0.00 in0.0 mm 0.00 in0.0 mm 0.00 in0.0 mm
01:16 AM 64.9°F18.3°C 59.6°F15.3°C 83% 2.3 mph WNW3.7 kmh WNW 5.0 mph8.0 kmh 29.88 in1011.9 mb 0.00 in0.0 mm 0.00 in0.0 mm 0.00 in0.0 mm
01:21 AM 64.7°F18.2°C 59.4°F15.2°C 83% 1.3 mph NW2.1 kmh NW 5.0 mph8.0 kmh 29.88 in1011.9 mb 0.00 in0.0 mm 0.00 in0.0 mm 0.00 in0.0 mm
01:26 AM 64.6°F18.1°C 59.3°F15.2°C 83% 1.1 mph WNW1.8 kmh WNW 5.0 mph8.0 kmh 29.88 in1011.9 mb 0.00 in0.0 mm 0.00 in0.0 mm 0.00 in0.0 mm
01:31 AM 64.4°F18.0°C 59.5°F15.3°C 84% 1.4 mph WNW2.3 kmh WNW 5.0 mph8.0 kmh 29.88 in1011.9 mb 0.00 in0.0 mm 0.00 in0.0 mm 0.00 in0.0 mm
01:36 AM 64.2°F17.9°C 59.3°F15.2°C 84% 1.2 mph W1.9 kmh W 3.0 mph4.8 kmh 29.88 in1011.9 mb 0.00 in0.0 mm 0.00 in0.0 mm 0.00 in0.0 mm
01:41 AM 64.1°F17.8°C 59.2°F15.1°C 84% 1.6 mph WNW2.6 kmh WNW 4.0 mph6.4 kmh 29.88 in1011.9 mb 0.00 in0.0 mm 0.00 in0.0 mm 0.00 in0.0 mm
01:46 AM 64.1°F17.8°C 59.2°F15.1°C 84% 1.5 mph WNW2.4 kmh WNW 4.0 mph6.4 kmh 29.88 in1011.9 mb 0.00 in0.0 mm 0.00 in0.0 mm 0.00 in0.0 mm
01:51 AM 63.8°F17.7°C 59.2°F15.1°C 85% 1.0 mph W1.6 kmh W 4.0 mph6.4 kmh 29.88 in1011.9 mb 0.00 in0.0 mm 0.00 in0.0 mm 0.00 in0.0 mm
01:56 AM 63.7°F17.6°C 59.1°F15.1°C 85% 1.5 mph W2.4 kmh W 4.0 mph6.4 kmh 29.88 in1011.9 mb 0.00 in0.0 mm 0.00 in0.0 mm 0.00 in0.0 mm
02:01 AM 63.6°F17.6°C 59.0°F15.0°C 85% 1.0 mph W1.6 kmh W 4.0 mph6.4 kmh 29.87 in1011.5 mb 0.00 in0.0 mm 0.00 in0.0 mm 0.00 in0.0 mm
02:06 AM 63.5°F17.5°C 58.9°F14.9°C 85% 1.0 mph W1.6 kmh W 2.0 mph3.2 kmh 29.87 in1011.5 mb 0.00 in0.0 mm 0.00 in0.0 mm 0.00 in0.0 mm
02:11 AM 63.4°F17.4°C 59.1°F15.1°C 86% 1.7 mph NW2.7 kmh NW 3.0 mph4.8 kmh 29.87 in1011.5 mb 0.00 in0.0 mm 0.00 in0.0 mm 0.00 in0.0 mm
02:16 AM 63.3°F17.4°C 59.0°F15.0°C 86% 1.3 mph NW2.1 kmh NW 3.0 mph4.8 kmh 29.87 in1011.5 mb 0.00 in0.0 mm 0.00 in0.0 mm 0.00 in0.0 mm
02:21 AM 63.2°F17.3°C 58.9°F14.9°C 86% 1.1 mph W1.8 kmh W 3.0 mph4.8 kmh 29.88 in1011.9 mb 0.00 in0.0 mm 0.00 in0.0 mm 0.00 in0.0 mm
02:26 AM 63.1°F17.3°C 58.8°F14.9°C 86% 1.8 mph WNW2.9 kmh WNW 3.0 mph4.8 kmh 29.87 in1011.5 mb 0.00 in0.0 mm 0.00 in0.0 mm 0.00 in0.0 mm
02:31 AM 63.1°F17.3°C 58.8°F14.9°C 86% 2.5 mph WNW4.0 kmh WNW 5.0 mph8.0 kmh 29.87 in1011.5 mb 0.00 in0.0 mm 0.00 in0.0 mm 0.00 in0.0 mm
02:36 AM 63.1°F17.3°C 58.8°F14.9°C 86% 1.3 mph WNW2.1 kmh WNW 5.0 mph8.0 kmh 29.87 in1011.5 mb 0.00 in0.0 mm 0.00 in0.0 mm 0.00 in0.0 mm
02:41 AM 63.1°F17.3°C 58.8°F14.9°C 86% 1.6 mph NW2.6 kmh NW 5.0 mph8.0 kmh 29.87 in1011.5 mb 0.00 in0.0 mm 0.00 in0.0 mm 0.00 in0.0 mm
02:46 AM 63.0°F17.2°C 58.7°F14.8°C 86% 1.6 mph NW2.6 kmh NW 5.0 mph8.0 kmh 29.87 in1011.5 mb 0.00 in0.0 mm 0.00 in0.0 mm 0.00 in0.0 mm
02:51 AM 62.9°F17.2°C 58.7°F14.8°C 86% 2.1 mph NW3.4 kmh NW 5.0 mph8.0 kmh 29.87 in1011.5 mb 0.00 in0.0 mm 0.00 in0.0 mm 0.00 in0.0 mm
02:56 AM 62.9°F17.2°C 58.7°F14.8°C 86% 1.7 mph WNW2.7 kmh WNW 5.0 mph8.0 kmh 29.87 in1011.5 mb 0.00 in0.0 mm 0.00 in0.0 mm 0.00 in0.0 mm
03:01 AM 62.8°F17.1°C 58.6°F14.8°C 86% 2.0 mph WNW3.2 kmh WNW 4.0 mph6.4 kmh 29.87 in1011.5 mb 0.00 in0.0 mm 0.00 in0.0 mm 0.00 in0.0 mm
03:06 AM 62.7°F17.1°C 58.5°F14.7°C 86% 1.5 mph WNW2.4 kmh WNW 4.0 mph6.4 kmh 29.88 in1011.9 mb 0.00 in0.0 mm 0.00 in0.0 mm 0.00 in0.0 mm
03:12 AM 62.6°F17.0°C 58.4°F14.7°C 86% 1.7 mph W2.7 kmh W 4.0 mph6.4 kmh 29.88 in1011.9 mb 0.00 in0.0 mm 0.00 in0.0 mm 0.00 in0.0 mm
03:17 AM 62.5°F16.9°C 58.3°F14.6°C 86% 1.6 mph WNW2.6 kmh WNW 4.0 mph6.4 kmh 29.88 in1011.9 mb 0.00 in0.0 mm 0.00 in0.0 mm 0.00 in0.0 mm
03:22 AM 62.5°F16.9°C 58.3°F14.6°C 86% 1.3 mph WNW2.1 kmh WNW 4.0 mph6.4 kmh 29.88 in1011.9 mb 0.00 in0.0 mm 0.00 in0.0 mm 0.00 in0.0 mm
03:27 AM 62.4°F16.9°C 58.5°F14.7°C 87% 1.8 mph NW2.9 kmh NW 5.0 mph8.0 kmh 29.89 in1012.2 mb 0.00 in0.0 mm 0.00 in0.0 mm 0.00 in0.0 mm
03:32 AM 62.3°F16.8°C 58.4°F14.7°C 87% 1.2 mph WNW1.9 kmh WNW 5.0 mph8.0 kmh 29.89 in1012.2 mb 0.00 in0.0 mm 0.00 in0.0 mm 0.00 in0.0 mm
03:37 AM 62.2°F16.8°C 58.3°F14.6°C 87% 1.9 mph NW3.1 kmh NW 5.0 mph8.0 kmh 29.89 in1012.2 mb 0.00 in0.0 mm 0.00 in0.0 mm 0.00 in0.0 mm
03:42 AM 62.2°F16.8°C 58.3°F14.6°C 87% 2.1 mph WNW3.4 kmh WNW 5.0 mph8.0 kmh 29.89 in1012.2 mb 0.00 in0.0 mm 0.00 in0.0 mm 0.00 in0.0 mm
03:47 AM 62.1°F16.7°C 58.5°F14.7°C 88% 1.9 mph WNW3.1 kmh WNW 4.0 mph6.4 kmh 29.90 in1012.5 mb 0.00 in0.0 mm 0.00 in0.0 mm 0.00 in0.0 mm
03:52 AM 62.0°F16.7°C 58.4°F14.7°C 88% 2.2 mph NW3.5 kmh NW 6.0 mph9.7 kmh 29.90 in1012.5 mb 0.00 in0.0 mm 0.00 in0.0 mm 0.00 in0.0 mm
03:57 AM 62.0°F16.7°C 58.1°F14.5°C 87% 1.2 mph NW1.9 kmh NW 6.0 mph9.7 kmh 29.90 in1012.5 mb 0.00 in0.0 mm 0.00 in0.0 mm 0.00 in0.0 mm
04:02 AM 62.0°F16.7°C 58.1°F14.5°C 87% 1.7 mph NW2.7 kmh NW 6.0 mph9.7 kmh 29.90 in1012.5 mb 0.00 in0.0 mm 0.00 in0.0 mm 0.00 in0.0 mm
04:07 AM 62.1°F16.7°C 58.2°F14.6°C 87% 2.2 mph WNW3.5 kmh WNW 6.0 mph9.7 kmh 29.90 in1012.5 mb 0.00 in0.0 mm 0.00 in0.0 mm 0.00 in0.0 mm
04:12 AM 62.0°F16.7°C 58.1°F14.5°C 87% 2.6 mph WNW4.2 kmh WNW 6.0 mph9.7 kmh 29.91 in1012.9 mb 0.00 in0.0 mm 0.00 in0.0 mm 0.00 in0.0 mm
04:17 AM 62.0°F16.7°C 58.1°F14.5°C 87% 2.3 mph WNW3.7 kmh WNW 6.0 mph9.7 kmh 29.91 in1012.9 mb 0.00 in0.0 mm 0.00 in0.0 mm 0.00 in0.0 mm
04:22 AM 61.9°F16.6°C 58.0°F14.4°C 87% 2.4 mph WNW3.9 kmh WNW 7.0 mph11.3 kmh 29.91 in1012.9 mb 0.00 in0.0 mm 0.00 in0.0 mm 0.00 in0.0 mm
04:27 AM 62.0°F16.7°C 58.1°F14.5°C 87% 2.3 mph NW3.7 kmh NW 7.0 mph11.3 kmh 29.91 in1012.9 mb 0.00 in0.0 mm 0.00 in0.0 mm 0.00 in0.0 mm
04:32 AM 61.8°F16.6°C 58.2°F14.6°C 88% 2.2 mph NW3.5 kmh NW 7.0 mph11.3 kmh 29.91 in1012.9 mb 0.00 in0.0 mm 0.00 in0.0 mm 0.00 in0.0 mm
04:37 AM 61.8°F16.6°C 58.2°F14.6°C 88% 1.9 mph NW3.1 kmh NW 7.0 mph11.3 kmh 29.91 in1012.9 mb 0.00 in0.0 mm 0.00 in0.0 mm 0.00 in0.0 mm
04:42 AM 61.7°F16.5°C 58.1°F14.5°C 88% 2.2 mph NW3.5 kmh NW 7.0 mph11.3 kmh 29.92 in1013.2 mb 0.00 in0.0 mm 0.00 in0.0 mm 0.00 in0.0 mm
04:47 AM 61.6°F16.4°C 58.0°F14.4°C 88% 2.2 mph WNW3.5 kmh WNW 7.0 mph11.3 kmh 29.92 in1013.2 mb 0.00 in0.0 mm 0.00 in0.0 mm 0.00 in0.0 mm
04:52 AM 61.4°F16.3°C 57.8°F14.3°C 88% 2.6 mph WNW4.2 kmh WNW 7.0 mph11.3 kmh 29.92 in1013.2 mb 0.00 in0.0 mm 0.00 in0.0 mm 0.00 in0.0 mm
04:57 AM 61.4°F16.3°C 57.8°F14.3°C 88% 2.6 mph WNW4.2 kmh WNW 7.0 mph11.3 kmh 29.92 in1013.2 mb 0.00 in0.0 mm 0.00 in0.0 mm 0.00 in0.0 mm
05:00 AM 61.4°F16.3°C 57.8°F14.3°C 88% 2.5 mph WNW4.0 kmh WNW 7.0 mph11.3 kmh 29.93 in1013.5 mb 0.00 in0.0 mm 0.00 in0.0 mm 0.00 in0.0 mm
05:05 AM 61.3°F16.3°C 57.7°F14.3°C 88% 2.6 mph WNW4.2 kmh WNW 7.0 mph11.3 kmh 29.93 in1013.5 mb 0.00 in0.0 mm 0.00 in0.0 mm 0.00 in0.0 mm
05:10 AM 61.2°F16.2°C 57.6°F14.2°C 88% 1.9 mph W3.1 kmh W 7.0 mph11.3 kmh 29.93 in1013.5 mb 0.00 in0.0 mm 0.00 in0.0 mm 0.00 in0.0 mm
05:15 AM 61.2°F16.2°C 57.6°F14.2°C 88% 2.3 mph WNW3.7 kmh WNW 9.0 mph14.5 kmh 29.93 in1013.5 mb 0.00 in0.0 mm 0.00 in0.0 mm 0.00 in0.0 mm
05:21 AM 61.2°F16.2°C 57.6°F14.2°C 88% 2.7 mph NW4.3 kmh NW 9.0 mph14.5 kmh 29.93 in1013.5 mb 0.00 in0.0 mm 0.00 in0.0 mm 0.00 in0.0 mm
05:26 AM 61.1°F16.2°C 57.8°F14.3°C 89% 3.8 mph WNW6.1 kmh WNW 9.0 mph14.5 kmh 29.94 in1013.9 mb 0.00 in0.0 mm 0.00 in0.0 mm 0.00 in0.0 mm
05:31 AM 61.1°F16.2°C 57.5°F14.2°C 88% 2.3 mph WNW3.7 kmh WNW 9.0 mph14.5 kmh 29.94 in1013.9 mb 0.00 in0.0 mm 0.00 in0.0 mm 0.00 in0.0 mm
05:36 AM 61.0°F16.1°C 57.7°F14.3°C 89% 2.0 mph WNW3.2 kmh WNW 10.0 mph16.1 kmh 29.94 in1013.9 mb 0.00 in0.0 mm 0.00 in0.0 mm 0.00 in0.0 mm
05:40 AM 60.8°F16.0°C 57.5°F14.2°C 89% 1.5 mph WNW2.4 kmh WNW 10.0 mph16.1 kmh 29.95 in1014.2 mb 0.00 in0.0 mm 0.00 in0.0 mm 0.00 in0.0 mm
05:46 AM 60.7°F15.9°C 57.4°F14.1°C 89% 2.0 mph WNW3.2 kmh WNW 10.0 mph16.1 kmh 29.95 in1014.2 mb 0.00 in0.0 mm 0.00 in0.0 mm 0.00 in0.0 mm
05:51 AM 60.5°F15.8°C 57.5°F14.2°C 90% 1.9 mph WNW3.1 kmh WNW 6.0 mph9.7 kmh 29.95 in1014.2 mb 0.00 in0.0 mm 0.00 in0.0 mm 0.00 in0.0 mm
05:56 AM 60.3°F15.7°C 57.4°F14.1°C 90% 2.3 mph WNW3.7 kmh WNW 6.0 mph9.7 kmh 29.95 in1014.2 mb 0.00 in0.0 mm 0.00 in0.0 mm 0.00 in0.0 mm
06:01 AM 60.1°F15.6°C 57.2°F14.0°C 90% 2.1 mph W3.4 kmh W 6.0 mph9.7 kmh 29.95 in1014.2 mb 0.00 in0.0 mm 0.00 in0.0 mm 0.00 in0.0 mm
06:06 AM 60.0°F15.6°C 57.4°F14.1°C 91% 2.2 mph WNW3.5 kmh WNW 6.0 mph9.7 kmh 29.95 in1014.2 mb 0.00 in0.0 mm 0.00 in0.0 mm 0.00 in0.0 mm
06:11 AM 59.9°F15.5°C 57.2°F14.0°C 91% 1.9 mph WNW3.1 kmh WNW 6.0 mph9.7 kmh 29.95 in1014.2 mb 0.00 in0.0 mm 0.00 in0.0 mm 0.00 in0.0 mm
06:16 AM 59.8°F15.4°C 57.1°F13.9°C 91% 3.7 mph WNW6.0 kmh WNW 6.0 mph9.7 kmh 29.95 in1014.2 mb 0.00 in0.0 mm 0.00 in0.0 mm 0.00 in0.0 mm
06:21 AM 59.7°F15.4°C 57.0°F13.9°C 91% 1.8 mph WNW2.9 kmh WNW 7.0 mph11.3 kmh 29.95 in1014.2 mb 0.00 in0.0 mm 0.00 in0.0 mm 0.00 in0.0 mm
06:26 AM 59.6°F15.3°C 56.9°F13.8°C 91% 2.0 mph WNW3.2 kmh WNW 7.0 mph11.3 kmh 29.95 in1014.2 mb 0.00 in0.0 mm 0.00 in0.0 mm 0.00 in0.0 mm
06:31 AM 59.4°F15.2°C 57.0°F13.9°C 92% 2.3 mph WNW3.7 kmh WNW 7.0 mph11.3 kmh 29.95 in1014.2 mb 0.00 in0.0 mm 0.00 in0.0 mm 0.00 in0.0 mm
06:36 AM 59.3°F15.2°C 56.9°F13.8°C 92% 3.0 mph WNW4.8 kmh WNW 5.0 mph8.0 kmh 29.94 in1013.9 mb 0.00 in0.0 mm 0.00 in0.0 mm 0.00 in0.0 mm
06:41 AM 59.2°F15.1°C 56.8°F13.8°C 92% 2.6 mph WNW4.2 kmh WNW 6.0 mph9.7 kmh 29.94 in1013.9 mb 0.00 in0.0 mm 0.00 in0.0 mm 0.00 in0.0 mm
06:46 AM 59.1°F15.1°C 56.7°F13.7°C 92% 2.3 mph WNW3.7 kmh WNW 8.0 mph12.9 kmh 29.94 in1013.9 mb 0.00 in0.0 mm 0.00 in0.0 mm 0.00 in0.0 mm
06:51 AM 59.0°F15.0°C 56.6°F13.7°C 92% 2.1 mph WNW3.4 kmh WNW 8.0 mph12.9 kmh 29.94 in1013.9 mb 0.00 in0.0 mm 0.00 in0.0 mm 0.00 in0.0 mm
06:56 AM 58.8°F14.9°C 56.7°F13.7°C 93% 1.9 mph WNW3.1 kmh WNW 8.0 mph12.9 kmh 29.94 in1013.9 mb 0.00 in0.0 mm 0.00 in0.0 mm 0.00 in0.0 mm
07:01 AM 58.7°F14.8°C 56.6°F13.7°C 93% 1.6 mph WNW2.6 kmh WNW 8.0 mph12.9 kmh 29.94 in1013.9 mb 0.00 in0.0 mm 0.00 in0.0 mm 0.00 in0.0 mm
07:06 AM 58.7°F14.8°C 56.6°F13.7°C 93% 2.1 mph WNW3.4 kmh WNW 5.0 mph8.0 kmh 29.94 in1013.9 mb 0.00 in0.0 mm 0.00 in0.0 mm 0.00 in0.0 mm
07:11 AM 58.6°F14.8°C 56.5°F13.6°C 93% 1.8 mph WNW2.9 kmh WNW 5.0 mph8.0 kmh 29.94 in1013.9 mb 0.00 in0.0 mm 0.00 in0.0 mm 0.00 in0.0 mm
07:16 AM 58.6°F14.8°C 56.5°F13.6°C 93% 2.2 mph WNW3.5 kmh WNW 5.0 mph8.0 kmh 29.95 in1014.2 mb 0.00 in0.0 mm 0.00 in0.0 mm 0.00 in0.0 mm
07:21 AM 58.8°F14.9°C 56.7°F13.7°C 93% 2.4 mph WNW3.9 kmh WNW 5.0 mph8.0 kmh 29.95 in1014.2 mb 0.00 in0.0 mm 0.00 in0.0 mm 0.00 in0.0 mm
07:26 AM 59.1°F15.1°C 57.0°F13.9°C 93% 2.4 mph W3.9 kmh W 6.0 mph9.7 kmh 29.96 in1014.6 mb 0.00 in0.0 mm 0.00 in0.0 mm 0.00 in0.0 mm
07:31 AM 59.4°F15.2°C 57.0°F13.9°C 92% 2.8 mph NW4.5 kmh NW 6.0 mph9.7 kmh 29.97 in1014.9 mb 0.00 in0.0 mm 0.00 in0.0 mm 0.00 in0.0 mm
07:36 AM 59.8°F15.4°C 57.4°F14.1°C 92% 1.6 mph NW2.6 kmh NW 6.0 mph9.7 kmh 29.97 in1014.9 mb 0.00 in0.0 mm 0.00 in0.0 mm 0.00 in0.0 mm
07:41 AM 60.0°F15.6°C 57.3°F14.1°C 91% 1.4 mph W2.3 kmh W 6.0 mph9.7 kmh 29.97 in1014.9 mb 0.00 in0.0 mm 0.00 in0.0 mm 0.00 in0.0 mm
07:46 AM 60.2°F15.7°C 57.5°F14.2°C 91% 2.8 mph WNW4.5 kmh WNW 5.0 mph8.0 kmh 29.97 in1014.9 mb 0.00 in0.0 mm 0.00 in0.0 mm 0.00 in0.0 mm
07:51 AM 60.3°F15.7°C 57.6°F14.2°C 91% 1.5 mph WNW2.4 kmh WNW 6.0 mph9.7 kmh 29.97 in1014.9 mb 0.00 in0.0 mm 0.00 in0.0 mm 0.00 in0.0 mm
07:56 AM 60.5°F15.8°C 57.5°F14.2°C 90% 2.8 mph WNW4.5 kmh WNW 6.0 mph9.7 kmh 29.98 in1015.2 mb 0.00 in0.0 mm 0.00 in0.0 mm 0.00 in0.0 mm
08:01 AM 60.8°F16.0°C 57.8°F14.3°C 90% 1.5 mph W2.4 kmh W 6.0 mph9.7 kmh 29.98 in1015.2 mb 0.00 in0.0 mm 0.00 in0.0 mm 0.00 in0.0 mm
08:06 AM 61.2°F16.2°C 57.9°F14.4°C 89% 2.1 mph WNW3.4 kmh WNW 6.0 mph9.7 kmh 29.98 in1015.2 mb 0.00 in0.0 mm 0.00 in0.0 mm 0.00 in0.0 mm
08:11 AM 61.4°F16.3°C 58.1°F14.5°C 89% 1.5 mph W2.4 kmh W 6.0 mph9.7 kmh 29.98 in1015.2 mb 0.00 in0.0 mm 0.00 in0.0 mm 0.00 in0.0 mm
08:16 AM 61.7°F16.5°C 58.1°F14.5°C 88% 2.1 mph WNW3.4 kmh WNW 4.0 mph6.4 kmh 29.98 in1015.2 mb 0.00 in0.0 mm 0.00 in0.0 mm 0.00 in0.0 mm
08:21 AM 62.1°F16.7°C 58.5°F14.7°C 88% 2.4 mph WNW3.9 kmh WNW 5.0 mph8.0 kmh 29.98 in1015.2 mb 0.00 in0.0 mm 0.00 in0.0 mm 0.00 in0.0 mm
08:26 AM 62.4°F16.9°C 58.5°F14.7°C 87% 1.6 mph NNW2.6 kmh NNW 5.0 mph8.0 kmh 29.98 in1015.2 mb 0.00 in0.0 mm 0.00 in0.0 mm 0.00 in0.0 mm
08:31 AM 62.7°F17.1°C 58.8°F14.9°C 87% 2.0 mph W3.2 kmh W 5.0 mph8.0 kmh 29.98 in1015.2 mb 0.00 in0.0 mm 0.00 in0.0 mm 0.00 in0.0 mm
08:36 AM 62.9°F17.2°C 58.7°F14.8°C 86% 2.2 mph WNW3.5 kmh WNW 6.0 mph9.7 kmh 29.98 in1015.2 mb 0.00 in0.0 mm 0.00 in0.0 mm 0.00 in0.0 mm
08:41 AM 63.3°F17.4°C 59.0°F15.0°C 86% 1.4 mph NW2.3 kmh NW 6.0 mph9.7 kmh 29.98 in1015.2 mb 0.00 in0.0 mm 0.00 in0.0 mm 0.00 in0.0 mm
08:46 AM 63.5°F17.5°C 58.9°F14.9°C 85% 2.2 mph NW3.5 kmh NW 6.0 mph9.7 kmh 29.98 in1015.2 mb 0.00 in0.0 mm 0.00 in0.0 mm 0.00 in0.0 mm
08:51 AM 63.8°F17.7°C 59.2°F15.1°C 85% 1.8 mph NW2.9 kmh NW 6.0 mph9.7 kmh 29.98 in1015.2 mb 0.00 in0.0 mm 0.00 in0.0 mm 0.00 in0.0 mm
08:56 AM 64.2°F17.9°C 59.3°F15.2°C 84% 1.3 mph NW2.1 kmh NW 5.0 mph8.0 kmh 29.98 in1015.2 mb 0.00 in0.0 mm 0.00 in0.0 mm 0.00 in0.0 mm
09:01 AM 64.5°F18.1°C 59.3°F15.2°C 83% 1.0 mph WNW1.6 kmh WNW 5.0 mph8.0 kmh 29.97 in1014.9 mb 0.00 in0.0 mm 0.00 in0.0 mm 0.00 in0.0 mm
09:06 AM 64.9°F18.3°C 59.6°F15.3°C 83% 1.0 mph N1.6 kmh N 4.0 mph6.4 kmh 29.97 in1014.9 mb 0.00 in0.0 mm 0.00 in0.0 mm 0.00 in0.0 mm
09:11 AM 65.2°F18.4°C 59.6°F15.3°C 82% 1.8 mph N2.9 kmh N 4.0 mph6.4 kmh 29.97 in1014.9 mb 0.00 in0.0 mm 0.00 in0.0 mm 0.00 in0.0 mm
09:16 AM 65.5°F18.6°C 59.9°F15.5°C 82% 1.0 mph NW1.6 kmh NW 4.0 mph6.4 kmh 29.98 in1015.2 mb 0.00 in0.0 mm 0.00 in0.0 mm 0.00 in0.0 mm
09:21 AM 65.8°F18.8°C 59.9°F15.5°C 81% 1.2 mph N1.9 kmh N 4.0 mph6.4 kmh 29.98 in1015.2 mb 0.00 in0.0 mm 0.00 in0.0 mm 0.00 in0.0 mm
09:26 AM 66.2°F19.0°C 59.9°F15.5°C 80% 1.3 mph N2.1 kmh N 4.0 mph6.4 kmh 29.98 in1015.2 mb 0.00 in0.0 mm 0.00 in0.0 mm 0.00 in0.0 mm
09:31 AM 66.6°F19.2°C 60.3°F15.7°C 80% 1.1 mph NNE1.8 kmh NNE 3.0 mph4.8 kmh 29.97 in1014.9 mb 0.00 in0.0 mm 0.00 in0.0 mm 0.00 in0.0 mm
09:36 AM 66.8°F19.3°C 60.2°F15.7°C 79% 1.3 mph NW2.1 kmh NW 4.0 mph6.4 kmh 29.97 in1014.9 mb 0.00 in0.0 mm 0.00 in0.0 mm 0.00 in0.0 mm
09:41 AM 66.4°F19.1°C 59.8°F15.4°C 79% 2.5 mph NW4.0 kmh NW 5.0 mph8.0 kmh 29.98 in1015.2 mb 0.00 in0.0 mm 0.00 in0.0 mm 0.00 in0.0 mm
09:46 AM 67.2°F19.6°C 60.9°F16.1°C 80% 1.1 mph NE1.8 kmh NE 5.0 mph8.0 kmh 29.98 in1015.2 mb 0.00 in0.0 mm 0.00 in0.0 mm 0.00 in0.0 mm
09:51 AM 67.7°F19.8°C 60.7°F15.9°C 78% 1.6 mph N2.6 kmh N 5.0 mph8.0 kmh 29.98 in1015.2 mb 0.00 in0.0 mm 0.00 in0.0 mm 0.00 in0.0 mm
09:56 AM 67.8°F19.9°C 60.4°F15.8°C 77% 2.6 mph NNE4.2 kmh NNE 5.0 mph8.0 kmh 29.98 in1015.2 mb 0.00 in0.0 mm 0.00 in0.0 mm 0.00 in0.0 mm
10:00 AM 68.2°F20.1°C 60.8°F16.0°C 77% 1.4 mph N2.3 kmh N 5.0 mph8.0 kmh 29.98 in1015.2 mb 0.00 in0.0 mm 0.00 in0.0 mm 0.00 in0.0 mm
10:05 AM 68.1°F20.1°C 61.1°F16.2°C 78% 1.2 mph NW1.9 kmh NW 5.0 mph8.0 kmh 29.98 in1015.2 mb 0.00 in0.0 mm 0.00 in0.0 mm 0.00 in0.0 mm
10:10 AM 68.3°F20.2°C 60.9°F16.1°C 77% 1.6 mph NNE2.6 kmh NNE 5.0 mph8.0 kmh 29.98 in1015.2 mb 0.00 in0.0 mm 0.00 in0.0 mm 0.00 in0.0 mm
10:15 AM 68.3°F20.2°C 61.3°F16.3°C 78% 1.3 mph NNE2.1 kmh NNE 6.0 mph9.7 kmh 29.99 in1015.6 mb 0.00 in0.0 mm 0.00 in0.0 mm 0.00 in0.0 mm
10:20 AM 68.2°F20.1°C 60.8°F16.0°C 77% 1.8 mph NE2.9 kmh NE 6.0 mph9.7 kmh 29.99 in1015.6 mb 0.00 in0.0 mm 0.00 in0.0 mm 0.00 in0.0 mm
10:25 AM 68.3°F20.2°C 61.6°F16.4°C 79% 1.0 mph NNW1.6 kmh NNW 6.0 mph9.7 kmh 29.99 in1015.6 mb 0.00 in0.0 mm 0.00 in0.0 mm 0.00 in0.0 mm
10:30 AM 68.8°F20.4°C 61.4°F16.3°C 77% 1.1 mph WNW1.8 kmh WNW 6.0 mph9.7 kmh 29.99 in1015.6 mb 0.00 in0.0 mm 0.00 in0.0 mm 0.00 in0.0 mm
10:35 AM 68.5°F20.3°C 61.1°F16.2°C 77% 2.4 mph NE3.9 kmh NE 6.0 mph9.7 kmh 29.99 in1015.6 mb 0.00 in0.0 mm 0.00 in0.0 mm 0.00 in0.0 mm
10:40 AM 68.5°F20.3°C 61.1°F16.2°C 77% 1.5 mph ENE2.4 kmh ENE 6.0 mph9.7 kmh 29.99 in1015.6 mb 0.00 in0.0 mm 0.00 in0.0 mm 0.00 in0.0 mm
10:45 AM 69.2°F20.7°C 61.4°F16.3°C 76% 1.1 mph W1.8 kmh W 6.0 mph9.7 kmh 29.99 in1015.6 mb 0.00 in0.0 mm 0.00 in0.0 mm 0.00 in0.0 mm
10:50 AM 70.0°F21.1°C 62.1°F16.7°C 76% 2.5 mph NE4.0 kmh NE 6.0 mph9.7 kmh 29.99 in1015.6 mb 0.00 in0.0 mm 0.00 in0.0 mm 0.00 in0.0 mm
10:55 AM 69.9°F21.1°C 61.6°F16.4°C 75% 1.6 mph NE2.6 kmh NE 5.0 mph8.0 kmh 29.99 in1015.6 mb 0.00 in0.0 mm 0.00 in0.0 mm 0.00 in0.0 mm
11:00 AM 70.4°F21.3°C 62.2°F16.8°C 75% 1.0 mph WNW1.6 kmh WNW 5.0 mph8.0 kmh 29.99 in1015.6 mb 0.00 in0.0 mm 0.00 in0.0 mm 0.00 in0.0 mm
11:05 AM 71.4°F21.9°C 61.3°F16.3°C 70% 2.4 mph NE3.9 kmh NE 5.0 mph8.0 kmh 29.99 in1015.6 mb 0.00 in0.0 mm 0.00 in0.0 mm 0.00 in0.0 mm
11:10 AM 71.0°F21.7°C 60.9°F16.1°C 70% Calm Calm 5.0 mph8.0 kmh 29.99 in1015.6 mb 0.00 in0.0 mm 0.00 in0.0 mm 0.00 in0.0 mm
11:15 AM 71.3°F21.8°C 61.6°F16.4°C 71% 3.0 mph NE4.8 kmh NE 5.0 mph8.0 kmh 29.99 in1015.6 mb 0.00 in0.0 mm 0.00 in0.0 mm 0.00 in0.0 mm
11:20 AM 71.4°F21.9°C 60.9°F16.1°C 69% 1.1 mph N1.8 kmh N 5.0 mph8.0 kmh 29.99 in1015.6 mb 0.00 in0.0 mm 0.00 in0.0 mm 0.00 in0.0 mm
11:25 AM 71.9°F22.2°C 61.0°F16.1°C 68% 1.9 mph N3.1 kmh N 5.0 mph8.0 kmh 29.99 in1015.6 mb 0.00 in0.0 mm 0.00 in0.0 mm 0.00 in0.0 mm
11:30 AM 72.1°F22.3°C 61.2°F16.2°C 68% 1.0 mph N1.6 kmh N 5.0 mph8.0 kmh 29.99 in1015.6 mb 0.00 in0.0 mm 0.00 in0.0 mm 0.00 in0.0 mm
11:35 AM 71.9°F22.2°C 61.4°F16.3°C 69% 2.3 mph NE3.7 kmh NE 6.0 mph9.7 kmh 29.99 in1015.6 mb 0.00 in0.0 mm 0.00 in0.0 mm 0.00 in0.0 mm
11:40 AM 71.9°F22.2°C 61.0°F16.1°C 68% 2.7 mph NE4.3 kmh NE 6.0 mph9.7 kmh 30.00 in1015.9 mb 0.00 in0.0 mm 0.00 in0.0 mm 0.00 in0.0 mm
11:45 AM 72.2°F22.3°C 61.2°F16.2°C 68% 4.8 mph NW7.7 kmh NW 6.0 mph9.7 kmh 30.00 in1015.9 mb 0.00 in0.0 mm 0.00 in0.0 mm 0.00 in0.0 mm
11:50 AM 72.4°F22.4°C 61.0°F16.1°C 67% 2.5 mph NW4.0 kmh NW 6.0 mph9.7 kmh 30.00 in1015.9 mb 0.00 in0.0 mm 0.00 in0.0 mm 0.00 in0.0 mm
11:55 AM 72.6°F22.6°C 61.0°F16.1°C 67% 1.0 mph NE1.6 kmh NE 6.0 mph9.7 kmh 30.00 in1015.9 mb 0.00 in0.0 mm 0.00 in0.0 mm 0.00 in0.0 mm
12:00 PM 73.1°F22.8°C 60.2°F15.7°C 64% 3.4 mph WNW5.5 kmh WNW 7.0 mph11.3 kmh 30.00 in1015.9 mb 0.00 in0.0 mm 0.00 in0.0 mm 0.00 in0.0 mm
12:05 PM 73.1°F22.8°C 60.0°F15.6°C 63% 2.7 mph WSW4.3 kmh WSW 7.0 mph11.3 kmh 30.00 in1015.9 mb 0.00 in0.0 mm 0.00 in0.0 mm 0.00 in0.0 mm
12:10 PM 73.2°F22.9°C 60.5°F15.8°C 64% 1.3 mph NW2.1 kmh NW 7.0 mph11.3 kmh 30.00 in1015.9 mb 0.00 in0.0 mm 0.00 in0.0 mm 0.00 in0.0 mm
12:15 PM 73.9°F23.3°C 60.3°F15.7°C 62% 1.9 mph N3.1 kmh N 7.0 mph11.3 kmh 30.00 in1015.9 mb 0.00 in0.0 mm 0.00 in0.0 mm 0.00 in0.0 mm
12:20 PM 74.8°F23.8°C 60.2°F15.7°C 60% 2.8 mph N4.5 kmh N 7.0 mph11.3 kmh 30.00 in1015.9 mb 0.00 in0.0 mm 0.00 in0.0 mm 0.00 in0.0 mm
12:25 PM 74.4°F23.6°C 59.8°F15.4°C 60% 2.7 mph NW4.3 kmh NW 8.0 mph12.9 kmh 30.00 in1015.9 mb 0.00 in0.0 mm 0.00 in0.0 mm 0.00 in0.0 mm
12:30 PM 74.7°F23.7°C 60.1°F15.6°C 60% 2.5 mph N4.0 kmh N 8.0 mph12.9 kmh 30.00 in1015.9 mb 0.00 in0.0 mm 0.00 in0.0 mm 0.00 in0.0 mm
12:35 PM 75.1°F23.9°C 59.5°F15.3°C 58% 1.2 mph W1.9 kmh W 8.0 mph12.9 kmh 30.00 in1015.9 mb 0.00 in0.0 mm 0.00 in0.0 mm 0.00 in0.0 mm
12:40 PM 75.5°F24.2°C 60.8°F16.0°C 60% 1.3 mph W2.1 kmh W 7.0 mph11.3 kmh 30.00 in1015.9 mb 0.00 in0.0 mm 0.00 in0.0 mm 0.00 in0.0 mm
12:45 PM 75.6°F24.2°C 60.5°F15.8°C 59% 2.4 mph WNW3.9 kmh WNW 6.0 mph9.7 kmh 30.01 in1016.3 mb 0.00 in0.0 mm 0.00 in0.0 mm 0.00 in0.0 mm
12:50 PM 75.6°F24.2°C 60.5°F15.8°C 59% 2.1 mph NNW3.4 kmh NNW 6.0 mph9.7 kmh 30.00 in1015.9 mb 0.00 in0.0 mm 0.00 in0.0 mm 0.00 in0.0 mm
12:55 PM 75.6°F24.2°C 60.5°F15.8°C 59% 2.2 mph NW3.5 kmh NW 6.0 mph9.7 kmh 30.00 in1015.9 mb 0.00 in0.0 mm 0.00 in0.0 mm 0.00 in0.0 mm
01:00 PM 76.1°F24.5°C 59.8°F15.4°C 57% 4.4 mph NW7.1 kmh NW 10.0 mph16.1 kmh 30.00 in1015.9 mb 0.00 in0.0 mm 0.00 in0.0 mm 0.00 in0.0 mm
01:05 PM 75.3°F24.1°C 58.2°F14.6°C 55% 3.9 mph NW6.3 kmh NW 10.0 mph16.1 kmh 30.00 in1015.9 mb 0.00 in0.0 mm 0.00 in0.0 mm 0.00 in0.0 mm
01:10 PM 75.8°F24.3°C 60.7°F15.9°C 59% 2.6 mph NW4.2 kmh NW 10.0 mph16.1 kmh 30.00 in1015.9 mb 0.00 in0.0 mm 0.00 in0.0 mm 0.00 in0.0 mm
01:15 PM 75.7°F24.3°C 59.1°F15.1°C 56% 1.7 mph NW2.7 kmh NW 10.0 mph16.1 kmh 30.00 in1015.9 mb 0.00 in0.0 mm 0.00 in0.0 mm 0.00 in0.0 mm
01:20 PM 76.0°F24.4°C 59.9°F15.5°C 57% 2.9 mph NW4.7 kmh NW 10.0 mph16.1 kmh 30.00 in1015.9 mb 0.00 in0.0 mm 0.00 in0.0 mm 0.00 in0.0 mm
01:25 PM 76.6°F24.8°C 60.9°F16.1°C 58% 1.5 mph NNW2.4 kmh NNW 10.0 mph16.1 kmh 30.00 in1015.9 mb 0.00 in0.0 mm 0.00 in0.0 mm 0.00 in0.0 mm
01:30 PM 76.8°F24.9°C 61.1°F16.2°C 58% 2.3 mph NW3.7 kmh NW 9.0 mph14.5 kmh 30.00 in1015.9 mb 0.00 in0.0 mm 0.00 in0.0 mm 0.00 in0.0 mm
01:35 PM 76.8°F24.9°C 60.1°F15.6°C 56% 3.4 mph NW5.5 kmh NW 9.0 mph14.5 kmh 30.00 in1015.9 mb 0.00 in0.0 mm 0.00 in0.0 mm 0.00 in0.0 mm
01:40 PM 76.9°F24.9°C 61.2°F16.2°C 58% 2.6 mph WNW4.2 kmh WNW 9.0 mph14.5 kmh 30.00 in1015.9 mb 0.00 in0.0 mm 0.00 in0.0 mm 0.00 in0.0 mm
01:45 PM 77.3°F25.2°C 60.6°F15.9°C 56% 2.0 mph NNE3.2 kmh NNE 9.0 mph14.5 kmh 30.00 in1015.9 mb 0.00 in0.0 mm 0.00 in0.0 mm 0.00 in0.0 mm
01:50 PM 77.4°F25.2°C 60.1°F15.6°C 55% 3.0 mph N4.8 kmh N 9.0 mph14.5 kmh 30.00 in1015.9 mb 0.00 in0.0 mm 0.00 in0.0 mm 0.00 in0.0 mm
01:55 PM 77.4°F25.2°C 60.7°F15.9°C 56% 2.9 mph NNW4.7 kmh NNW 9.0 mph14.5 kmh 30.00 in1015.9 mb 0.00 in0.0 mm 0.00 in0.0 mm 0.00 in0.0 mm
02:00 PM 77.2°F25.1°C 60.3°F15.7°C 56% 2.6 mph WNW4.2 kmh WNW 8.0 mph12.9 kmh 30.00 in1015.9 mb 0.00 in0.0 mm 0.00 in0.0 mm 0.00 in0.0 mm
02:05 PM 77.0°F25.0°C 59.6°F15.3°C 55% 2.7 mph NW4.3 kmh NW 8.0 mph12.9 kmh 29.99 in1015.6 mb 0.00 in0.0 mm 0.00 in0.0 mm 0.00 in0.0 mm
02:10 PM 76.6°F24.8°C 59.4°F15.2°C 55% 1.6 mph SSE2.6 kmh SSE 8.0 mph12.9 kmh 30.00 in1015.9 mb 0.00 in0.0 mm 0.00 in0.0 mm 0.00 in0.0 mm
02:15 PM 76.9°F24.9°C 60.2°F15.7°C 56% 2.9 mph E4.7 kmh E 8.0 mph12.9 kmh 30.00 in1015.9 mb 0.00 in0.0 mm 0.00 in0.0 mm 0.00 in0.0 mm
02:20 PM 77.9°F25.5°C 60.6°F15.9°C 55% 2.8 mph N4.5 kmh N 9.0 mph14.5 kmh 30.00 in1015.9 mb 0.00 in0.0 mm 0.00 in0.0 mm 0.00 in0.0 mm
02:25 PM 78.2°F25.7°C 59.3°F15.2°C 52% 3.3 mph NE5.3 kmh NE 9.0 mph14.5 kmh 30.00 in1015.9 mb 0.00 in0.0 mm 0.00 in0.0 mm 0.00 in0.0 mm
02:30 PM 77.6°F25.3°C 59.8°F15.4°C 54% 4.7 mph NE7.6 kmh NE 9.0 mph14.5 kmh 30.00 in1015.9 mb 0.00 in0.0 mm 0.00 in0.0 mm 0.00 in0.0 mm
02:35 PM 77.9°F25.5°C 60.6°F15.9°C 55% 2.5 mph NE4.0 kmh NE 9.0 mph14.5 kmh 30.00 in1015.9 mb 0.00 in0.0 mm 0.00 in0.0 mm 0.00 in0.0 mm
02:40 PM 78.4°F25.8°C 60.5°F15.8°C 54% 3.2 mph NW5.1 kmh NW 9.0 mph14.5 kmh 30.00 in1015.9 mb 0.00 in0.0 mm 0.00 in0.0 mm 0.00 in0.0 mm
02:45 PM 78.8°F26.0°C 58.6°F14.8°C 50% 3.6 mph N5.8 kmh N 9.0 mph14.5 kmh 30.00 in1015.9 mb 0.00 in0.0 mm 0.00 in0.0 mm 0.00 in0.0 mm
02:50 PM 78.8°F26.0°C 59.1°F15.1°C 51% 1.2 mph N1.9 kmh N 7.0 mph11.3 kmh 30.00 in1015.9 mb 0.00 in0.0 mm 0.00 in0.0 mm 0.00 in0.0 mm
02:55 PM 79.1°F26.2°C 57.8°F14.3°C 48% 2.7 mph ENE4.3 kmh ENE 7.0 mph11.3 kmh 30.00 in1015.9 mb 0.00 in0.0 mm 0.00 in0.0 mm 0.00 in0.0 mm
02:59 PM 78.5°F25.8°C 58.4°F14.7°C 50% 2.6 mph N4.2 kmh N 7.0 mph11.3 kmh 30.00 in1015.9 mb 0.00 in0.0 mm 0.00 in0.0 mm 0.00 in0.0 mm
03:04 PM 78.4°F25.8°C 58.3°F14.6°C 50% 3.8 mph NE6.1 kmh NE 9.0 mph14.5 kmh 30.00 in1015.9 mb 0.00 in0.0 mm 0.00 in0.0 mm 0.00 in0.0 mm
03:09 PM 78.4°F25.8°C 58.9°F14.9°C 51% 1.8 mph N2.9 kmh N 9.0 mph14.5 kmh 30.00 in1015.9 mb 0.00 in0.0 mm 0.00 in0.0 mm 0.00 in0.0 mm
03:14 PM 78.7°F25.9°C 56.8°F13.8°C 47% 1.9 mph NNE3.1 kmh NNE 9.0 mph14.5 kmh 30.00 in1015.9 mb 0.00 in0.0 mm 0.00 in0.0 mm 0.00 in0.0 mm
03:19 PM 78.7°F25.9°C 58.5°F14.7°C 50% 4.3 mph WNW6.9 kmh WNW 8.0 mph12.9 kmh 30.00 in1015.9 mb 0.00 in0.0 mm 0.00 in0.0 mm 0.00 in0.0 mm
03:24 PM 78.9°F26.1°C 58.2°F14.6°C 49% 3.1 mph W5.0 kmh W 8.0 mph12.9 kmh 30.00 in1015.9 mb 0.00 in0.0 mm 0.00 in0.0 mm 0.00 in0.0 mm
03:29 PM 78.8°F26.0°C 58.1°F14.5°C 49% 2.6 mph SW4.2 kmh SW 8.0 mph12.9 kmh 30.00 in1015.9 mb 0.00 in0.0 mm 0.00 in0.0 mm 0.00 in0.0 mm
03:34 PM 79.2°F26.2°C 57.9°F14.4°C 48% 2.4 mph NNW3.9 kmh NNW 8.0 mph12.9 kmh 30.00 in1015.9 mb 0.00 in0.0 mm 0.00 in0.0 mm 0.00 in0.0 mm
03:39 PM 79.0°F26.1°C 58.9°F14.9°C 50% 2.1 mph NNE3.4 kmh NNE 8.0 mph12.9 kmh 30.00 in1015.9 mb 0.00 in0.0 mm 0.00 in0.0 mm 0.00 in0.0 mm
03:44 PM 78.8°F26.0°C 58.1°F14.5°C 49% 1.9 mph NW3.1 kmh NW 8.0 mph12.9 kmh 30.00 in1015.9 mb 0.00 in0.0 mm 0.00 in0.0 mm 0.00 in0.0 mm
03:49 PM 78.7°F25.9°C 58.0°F14.4°C 49% 1.7 mph WNW2.7 kmh WNW 8.0 mph12.9 kmh 30.00 in1015.9 mb 0.00 in0.0 mm 0.00 in0.0 mm 0.00 in0.0 mm
03:54 PM 79.3°F26.3°C 58.5°F14.7°C 49% 5.6 mph NE9.0 kmh NE 9.0 mph14.5 kmh 29.99 in1015.6 mb 0.00 in0.0 mm 0.00 in0.0 mm 0.00 in0.0 mm
03:59 PM 79.6°F26.4°C 58.9°F14.9°C 49% 3.4 mph NE5.5 kmh NE 9.0 mph14.5 kmh 29.99 in1015.6 mb 0.00 in0.0 mm 0.00 in0.0 mm 0.00 in0.0 mm
04:04 PM 79.5°F26.4°C 58.8°F14.9°C 49% 1.8 mph NW2.9 kmh NW 9.0 mph14.5 kmh 29.99 in1015.6 mb 0.00 in0.0 mm 0.00 in0.0 mm 0.00 in0.0 mm
04:09 PM 79.5°F26.4°C 58.8°F14.9°C 49% 1.8 mph NW2.9 kmh NW 9.0 mph14.5 kmh 29.99 in1015.6 mb 0.00 in0.0 mm 0.00 in0.0 mm 0.00 in0.0 mm
04:14 PM 79.3°F26.3°C 58.0°F14.4°C 48% 2.4 mph WSW3.9 kmh WSW 7.0 mph11.3 kmh 29.99 in1015.6 mb 0.00 in0.0 mm 0.00 in0.0 mm 0.00 in0.0 mm
04:19 PM 79.2°F26.2°C 58.5°F14.7°C 49% 1.7 mph ENE2.7 kmh ENE 5.0 mph8.0 kmh 29.99 in1015.6 mb 0.00 in0.0 mm 0.00 in0.0 mm 0.00 in0.0 mm
04:24 PM 79.7°F26.5°C 58.9°F14.9°C 49% 2.8 mph N4.5 kmh N 7.0 mph11.3 kmh 29.99 in1015.6 mb 0.00 in0.0 mm 0.00 in0.0 mm 0.00 in0.0 mm
04:29 PM 80.0°F26.7°C 58.6°F14.8°C 48% Calm Calm 7.0 mph11.3 kmh 29.99 in1015.6 mb 0.00 in0.0 mm 0.00 in0.0 mm 0.00 in0.0 mm
04:34 PM 80.4°F26.9°C 59.0°F15.0°C 48% 2.9 mph WNW4.7 kmh WNW 7.0 mph11.3 kmh 29.99 in1015.6 mb 0.00 in0.0 mm 0.00 in0.0 mm 0.00 in0.0 mm
04:39 PM 80.1°F26.7°C 58.7°F14.8°C 48% 3.8 mph E6.1 kmh E 7.0 mph11.3 kmh 29.99 in1015.6 mb 0.00 in0.0 mm 0.00 in0.0 mm 0.00 in0.0 mm
04:44 PM 79.8°F26.6°C 59.6°F15.3°C 50% 1.0 mph N1.6 kmh N 7.0 mph11.3 kmh 29.99 in1015.6 mb 0.00 in0.0 mm 0.00 in0.0 mm 0.00 in0.0 mm
04:49 PM 80.3°F26.8°C 59.4°F15.2°C 49% 1.6 mph N2.6 kmh N 7.0 mph11.3 kmh 29.99 in1015.6 mb 0.00 in0.0 mm 0.00 in0.0 mm 0.00 in0.0 mm
04:54 PM 80.6°F27.0°C 60.2°F15.7°C 50% 2.1 mph NE3.4 kmh NE 9.0 mph14.5 kmh 29.99 in1015.6 mb 0.00 in0.0 mm 0.00 in0.0 mm 0.00 in0.0 mm
04:59 PM 80.5°F26.9°C 59.7°F15.4°C 49% 3.2 mph NE5.1 kmh NE 9.0 mph14.5 kmh 29.99 in1015.6 mb 0.00 in0.0 mm 0.00 in0.0 mm 0.00 in0.0 mm
05:04 PM 80.3°F26.8°C 58.9°F14.9°C 48% 2.4 mph NNE3.9 kmh NNE 9.0 mph14.5 kmh 29.99 in1015.6 mb 0.00 in0.0 mm 0.00 in0.0 mm 0.00 in0.0 mm
05:09 PM 80.2°F26.8°C 58.8°F14.9°C 48% 2.1 mph NW3.4 kmh NW 9.0 mph14.5 kmh 29.99 in1015.6 mb 0.00 in0.0 mm 0.00 in0.0 mm 0.00 in0.0 mm
05:14 PM 80.1°F26.7°C 59.9°F15.5°C 50% 1.7 mph NNE2.7 kmh NNE 7.0 mph11.3 kmh 29.99 in1015.6 mb 0.00 in0.0 mm 0.00 in0.0 mm 0.00 in0.0 mm
05:19 PM 80.2°F26.8°C 58.8°F14.9°C 48% 2.7 mph NE4.3 kmh NE 5.0 mph8.0 kmh 29.99 in1015.6 mb 0.00 in0.0 mm 0.00 in0.0 mm 0.00 in0.0 mm
05:24 PM 79.8°F26.6°C 59.0°F15.0°C 49% 1.2 mph N1.9 kmh N 5.0 mph8.0 kmh 29.99 in1015.6 mb 0.00 in0.0 mm 0.00 in0.0 mm 0.00 in0.0 mm
05:29 PM 80.1°F26.7°C 59.3°F15.2°C 49% 1.4 mph NE2.3 kmh NE 4.0 mph6.4 kmh 29.99 in1015.6 mb 0.00 in0.0 mm 0.00 in0.0 mm 0.00 in0.0 mm
05:34 PM 81.1°F27.3°C 60.1°F15.6°C 49% 1.0 mph NE1.6 kmh NE 4.0 mph6.4 kmh 29.99 in1015.6 mb 0.00 in0.0 mm 0.00 in0.0 mm 0.00 in0.0 mm
05:39 PM 80.4°F26.9°C 59.0°F15.0°C 48% 3.5 mph NE5.6 kmh NE 6.0 mph9.7 kmh 29.99 in1015.6 mb 0.00 in0.0 mm 0.00 in0.0 mm 0.00 in0.0 mm
05:44 PM 79.9°F26.6°C 59.1°F15.1°C 49% 2.6 mph N4.2 kmh N 8.0 mph12.9 kmh 29.99 in1015.6 mb 0.00 in0.0 mm 0.00 in0.0 mm 0.00 in0.0 mm
05:49 PM 79.5°F26.4°C 58.8°F14.9°C 49% 1.2 mph NNE1.9 kmh NNE 8.0 mph12.9 kmh 29.99 in1015.6 mb 0.00 in0.0 mm 0.00 in0.0 mm 0.00 in0.0 mm
05:54 PM 79.4°F26.3°C 58.7°F14.8°C 49% 2.0 mph NW3.2 kmh NW 8.0 mph12.9 kmh 29.99 in1015.6 mb 0.00 in0.0 mm 0.00 in0.0 mm 0.00 in0.0 mm
05:59 PM 79.4°F26.3°C 58.7°F14.8°C 49% 1.3 mph NW2.1 kmh NW 6.0 mph9.7 kmh 29.99 in1015.6 mb 0.00 in0.0 mm 0.00 in0.0 mm 0.00 in0.0 mm
06:04 PM 79.7°F26.5°C 60.0°F15.6°C 51% 1.5 mph NE2.4 kmh NE 4.0 mph6.4 kmh 29.99 in1015.6 mb 0.00 in0.0 mm 0.00 in0.0 mm 0.00 in0.0 mm
06:09 PM 79.6°F26.4°C 58.8°F14.9°C 49% 2.0 mph NE3.2 kmh NE 4.0 mph6.4 kmh 29.99 in1015.6 mb 0.00 in0.0 mm 0.00 in0.0 mm 0.00 in0.0 mm
06:14 PM 79.6°F26.4°C 58.8°F14.9°C 49% 2.0 mph NE3.2 kmh NE 5.0 mph8.0 kmh 29.99 in1015.6 mb 0.00 in0.0 mm 0.00 in0.0 mm 0.00 in0.0 mm
06:19 PM 79.3°F26.3°C 59.6°F15.3°C 51% 2.9 mph NE4.7 kmh NE 6.0 mph9.7 kmh 29.99 in1015.6 mb 0.00 in0.0 mm 0.00 in0.0 mm 0.00 in0.0 mm
06:24 PM 79.1°F26.2°C 60.1°F15.6°C 52% 3.7 mph ENE6.0 kmh ENE 6.0 mph9.7 kmh 29.99 in1015.6 mb 0.00 in0.0 mm 0.00 in0.0 mm 0.00 in0.0 mm
06:29 PM 79.0°F26.1°C 59.5°F15.3°C 51% 1.9 mph NE3.1 kmh NE 6.0 mph9.7 kmh 29.99 in1015.6 mb 0.00 in0.0 mm 0.00 in0.0 mm 0.00 in0.0 mm
06:34 PM 79.1°F26.2°C 59.0°F15.0°C 50% 1.8 mph ENE2.9 kmh ENE 6.0 mph9.7 kmh 29.99 in1015.6 mb 0.00 in0.0 mm 0.00 in0.0 mm 0.00 in0.0 mm
06:39 PM 79.6°F26.4°C 60.0°F15.6°C 51% 1.8 mph E2.9 kmh E 6.0 mph9.7 kmh 29.99 in1015.6 mb 0.00 in0.0 mm 0.00 in0.0 mm 0.00 in0.0 mm
06:44 PM 79.2°F26.2°C 58.5°F14.7°C 49% 1.8 mph NNE2.9 kmh NNE 4.0 mph6.4 kmh 29.99 in1015.6 mb 0.00 in0.0 mm 0.00 in0.0 mm 0.00 in0.0 mm
06:49 PM 79.3°F26.3°C 59.2°F15.1°C 50% Calm Calm 3.0 mph4.8 kmh 29.99 in1015.6 mb 0.00 in0.0 mm 0.00 in0.0 mm 0.00 in0.0 mm
06:54 PM 79.2°F26.2°C 59.6°F15.3°C 51% 1.4 mph E2.3 kmh E 3.0 mph4.8 kmh 29.99 in1015.6 mb 0.00 in0.0 mm 0.00 in0.0 mm 0.00 in0.0 mm
06:59 PM 79.2°F26.2°C 59.1°F15.1°C 50% 2.1 mph NNE3.4 kmh NNE 3.0 mph4.8 kmh 30.00 in1015.9 mb 0.00 in0.0 mm 0.00 in0.0 mm 0.00 in0.0 mm
07:04 PM 79.2°F26.2°C 59.1°F15.1°C 50% 1.4 mph NNE2.3 kmh NNE 3.0 mph4.8 kmh 30.00 in1015.9 mb 0.00 in0.0 mm 0.00 in0.0 mm 0.00 in0.0 mm
07:09 PM 79.2°F26.2°C 59.6°F15.3°C 51% 1.8 mph ENE2.9 kmh ENE 3.0 mph4.8 kmh 30.00 in1015.9 mb 0.00 in0.0 mm 0.00 in0.0 mm 0.00 in0.0 mm
07:14 PM 79.1°F26.2°C 59.4°F15.2°C 51% 2.2 mph NE3.5 kmh NE 4.0 mph6.4 kmh 30.00 in1015.9 mb 0.00 in0.0 mm 0.00 in0.0 mm 0.00 in0.0 mm
07:19 PM 78.8°F26.0°C 60.4°F15.8°C 53% 2.5 mph NE4.0 kmh NE 4.0 mph6.4 kmh 30.00 in1015.9 mb 0.00 in0.0 mm 0.00 in0.0 mm 0.00 in0.0 mm
07:24 PM 78.7°F25.9°C 60.8°F16.0°C 54% 1.0 mph NE1.6 kmh NE 4.0 mph6.4 kmh 30.00 in1015.9 mb 0.00 in0.0 mm 0.00 in0.0 mm 0.00 in0.0 mm
07:29 PM 78.5°F25.8°C 60.5°F15.8°C 54% 1.8 mph NE2.9 kmh NE 4.0 mph6.4 kmh 29.99 in1015.6 mb 0.00 in0.0 mm 0.00 in0.0 mm 0.00 in0.0 mm
07:34 PM 78.3°F25.7°C 59.4°F15.2°C 52% 1.0 mph NE1.6 kmh NE 4.0 mph6.4 kmh 30.00 in1015.9 mb 0.00 in0.0 mm 0.00 in0.0 mm 0.00 in0.0 mm
07:39 PM 78.3°F25.7°C 59.8°F15.4°C 53% 1.6 mph NE2.6 kmh NE 3.0 mph4.8 kmh 30.00 in1015.9 mb 0.00 in0.0 mm 0.00 in0.0 mm 0.00 in0.0 mm
07:44 PM 78.4°F25.8°C 59.5°F15.3°C 52% 1.6 mph NE2.6 kmh NE 3.0 mph4.8 kmh 30.00 in1015.9 mb 0.00 in0.0 mm 0.00 in0.0 mm 0.00 in0.0 mm
07:49 PM 78.2°F25.7°C 59.8°F15.4°C 53% Calm Calm 3.0 mph4.8 kmh 30.00 in1015.9 mb 0.00 in0.0 mm 0.00 in0.0 mm 0.00 in0.0 mm
07:54 PM 78.1°F25.6°C 59.2°F15.1°C 52% Calm Calm 2.0 mph3.2 kmh 30.00 in1015.9 mb 0.00 in0.0 mm 0.00 in0.0 mm 0.00 in0.0 mm
07:59 PM 78.1°F25.6°C 59.7°F15.4°C 53% Calm Calm 2.0 mph3.2 kmh 30.00 in1015.9 mb 0.00 in0.0 mm 0.00 in0.0 mm 0.00 in0.0 mm
08:04 PM 77.8°F25.4°C 60.3°F15.7°C 55% Calm Calm 1.0 mph1.6 kmh 30.01 in1016.3 mb 0.00 in0.0 mm 0.00 in0.0 mm 0.00 in0.0 mm
08:09 PM 77.3°F25.2°C 60.6°F15.9°C 56% Calm Calm -- 30.01 in1016.3 mb 0.00 in0.0 mm 0.00 in0.0 mm 0.00 in0.0 mm
08:14 PM 76.7°F24.8°C 60.0°F15.6°C 56% Calm Calm -- 30.00 in1015.9 mb 0.00 in0.0 mm 0.00 in0.0 mm 0.00 in0.0 mm
08:19 PM 76.4°F24.7°C 60.7°F15.9°C 58% Calm Calm -- 30.00 in1015.9 mb 0.00 in0.0 mm 0.00 in0.0 mm 0.00 in0.0 mm
08:24 PM 75.9°F24.4°C 61.2°F16.2°C 60% Calm Calm -- 30.01 in1016.3 mb 0.00 in0.0 mm 0.00 in0.0 mm 0.00 in0.0 mm
08:29 PM 75.4°F24.1°C 60.8°F16.0°C 60% Calm Calm -- 30.01 in1016.3 mb 0.00 in0.0 mm 0.00 in0.0 mm 0.00 in0.0 mm
08:34 PM 75.1°F23.9°C 60.9°F16.1°C 61% Calm Calm -- 30.01 in1016.3 mb 0.00 in0.0 mm 0.00 in0.0 mm 0.00 in0.0 mm
08:39 PM 74.8°F23.8°C 60.7°F15.9°C 61% Calm Calm -- 30.01 in1016.3 mb 0.00 in0.0 mm 0.00 in0.0 mm 0.00 in0.0 mm
08:44 PM 74.7°F23.7°C 60.1°F15.6°C 60% Calm Calm -- 30.01 in1016.3 mb 0.00 in0.0 mm 0.00 in0.0 mm 0.00 in0.0 mm
08:49 PM 75.0°F23.9°C 60.2°F15.7°C 60% 1.0 mph NNW1.6 kmh NNW 1.0 mph1.6 kmh 30.02 in1016.6 mb 0.00 in0.0 mm 0.00 in0.0 mm 0.00 in0.0 mm
08:54 PM 75.1°F23.9°C 60.9°F16.1°C 61% Calm Calm 1.0 mph1.6 kmh 30.02 in1016.6 mb 0.00 in0.0 mm 0.00 in0.0 mm 0.00 in0.0 mm
08:58 PM 74.9°F23.8°C 60.3°F15.7°C 60% Calm Calm 1.0 mph1.6 kmh 30.02 in1016.6 mb 0.00 in0.0 mm 0.00 in0.0 mm 0.00 in0.0 mm
09:03 PM 75.0°F23.9°C 60.4°F15.8°C 60% Calm Calm 1.0 mph1.6 kmh 30.02 in1016.6 mb 0.00 in0.0 mm 0.00 in0.0 mm 0.00 in0.0 mm
09:08 PM 74.8°F23.8°C 60.2°F15.7°C 60% Calm Calm 1.0 mph1.6 kmh 30.02 in1016.6 mb 0.00 in0.0 mm 0.00 in0.0 mm 0.00 in0.0 mm
09:13 PM 74.4°F23.6°C 60.3°F15.7°C 61% Calm Calm 1.0 mph1.6 kmh 30.02 in1016.6 mb 0.00 in0.0 mm 0.00 in0.0 mm 0.00 in0.0 mm
09:18 PM 74.0°F23.3°C 60.4°F15.8°C 62% Calm Calm 1.0 mph1.6 kmh 30.02 in1016.6 mb 0.00 in0.0 mm 0.00 in0.0 mm 0.00 in0.0 mm
09:23 PM 73.5°F23.1°C 60.8°F16.0°C 64% Calm Calm -- 30.03 in1016.9 mb 0.00 in0.0 mm 0.00 in0.0 mm 0.00 in0.0 mm
09:28 PM 73.3°F22.9°C 60.6°F15.9°C 64% Calm Calm 1.0 mph1.6 kmh 30.03 in1016.9 mb 0.00 in0.0 mm 0.00 in0.0 mm 0.00 in0.0 mm
09:33 PM 73.5°F23.1°C 60.8°F16.0°C 64% Calm Calm 1.0 mph1.6 kmh 30.03 in1016.9 mb 0.00 in0.0 mm 0.00 in0.0 mm 0.00 in0.0 mm
09:38 PM 73.1°F22.8°C 60.4°F15.8°C 64% Calm Calm 1.0 mph1.6 kmh 30.03 in1016.9 mb 0.00 in0.0 mm 0.00 in0.0 mm 0.00 in0.0 mm
09:43 PM 72.6°F22.6°C 59.7°F15.4°C 64% Calm Calm 1.0 mph1.6 kmh 30.04 in1017.3 mb 0.00 in0.0 mm 0.00 in0.0 mm 0.00 in0.0 mm
09:48 PM 72.3°F22.4°C 59.9°F15.5°C 65% Calm Calm -- 30.04 in1017.3 mb 0.00 in0.0 mm 0.00 in0.0 mm 0.00 in0.0 mm
09:53 PM 72.2°F22.3°C 59.5°F15.3°C 64% Calm Calm -- 30.04 in1017.3 mb 0.00 in0.0 mm 0.00 in0.0 mm 0.00 in0.0 mm
09:58 PM 72.4°F22.4°C 59.7°F15.4°C 64% Calm Calm -- 30.04 in1017.3 mb 0.00 in0.0 mm 0.00 in0.0 mm 0.00 in0.0 mm
10:03 PM 72.3°F22.4°C 59.2°F15.1°C 63% Calm Calm -- 30.04 in1017.3 mb 0.00 in0.0 mm 0.00 in0.0 mm 0.00 in0.0 mm
10:08 PM 72.4°F22.4°C 59.3°F15.2°C 63% Calm Calm -- 30.05 in1017.6 mb 0.00 in0.0 mm 0.00 in0.0 mm 0.00 in0.0 mm
10:13 PM 72.5°F22.5°C 59.2°F15.1°C 63% Calm Calm -- 30.05 in1017.6 mb 0.00 in0.0 mm 0.00 in0.0 mm 0.00 in0.0 mm
10:18 PM 72.7°F22.6°C 59.1°F15.1°C 62% Calm Calm -- 30.05 in1017.6 mb 0.00 in0.0 mm 0.00 in0.0 mm 0.00 in0.0 mm
10:23 PM 72.9°F22.7°C 58.7°F14.8°C 61% Calm Calm -- 30.05 in1017.6 mb 0.00 in0.0 mm 0.00 in0.0 mm 0.00 in0.0 mm
10:28 PM 72.7°F22.6°C 58.7°F14.8°C 61% Calm Calm -- 30.05 in1017.6 mb 0.00 in0.0 mm 0.00 in0.0 mm 0.00 in0.0 mm
10:33 PM 72.8°F22.7°C 58.8°F14.9°C 61% Calm Calm -- 30.05 in1017.6 mb 0.00 in0.0 mm 0.00 in0.0 mm 0.00 in0.0 mm
10:38 PM 72.7°F22.6°C 59.1°F15.1°C 62% Calm Calm -- 30.05 in1017.6 mb 0.00 in0.0 mm 0.00 in0.0 mm 0.00 in0.0 mm
10:43 PM 72.7°F22.6°C 58.9°F14.9°C 62% Calm Calm -- 30.06 in1017.9 mb 0.00 in0.0 mm 0.00 in0.0 mm 0.00 in0.0 mm
10:48 PM 72.5°F22.5°C 58.9°F14.9°C 62% Calm Calm -- 30.06 in1017.9 mb 0.00 in0.0 mm 0.00 in0.0 mm 0.00 in0.0 mm
10:53 PM 72.4°F22.4°C 58.8°F14.9°C 62% Calm Calm -- 30.06 in1017.9 mb 0.00 in0.0 mm 0.00 in0.0 mm 0.00 in0.0 mm
10:58 PM 72.3°F22.4°C 58.7°F14.8°C 62% Calm Calm -- 30.06 in1017.9 mb 0.00 in0.0 mm 0.00 in0.0 mm 0.00 in0.0 mm
11:03 PM 72.4°F22.4°C 58.8°F14.9°C 62% Calm Calm -- 30.06 in1017.9 mb 0.00 in0.0 mm 0.00 in0.0 mm 0.00 in0.0 mm
11:08 PM 72.5°F22.5°C 58.7°F14.8°C 62% 1.0 mph NNW1.6 kmh NNW 1.0 mph1.6 kmh 30.06 in1017.9 mb 0.00 in0.0 mm 0.00 in0.0 mm 0.00 in0.0 mm
11:13 PM 72.4°F22.4°C 58.8°F14.9°C 62% Calm Calm 1.0 mph1.6 kmh 30.06 in1017.9 mb 0.00 in0.0 mm 0.00 in0.0 mm 0.00 in0.0 mm
11:18 PM 72.3°F22.4°C 58.7°F14.8°C 62% Calm Calm 1.0 mph1.6 kmh 30.06 in1017.9 mb 0.00 in0.0 mm 0.00 in0.0 mm 0.00 in0.0 mm
11:23 PM 72.4°F22.4°C 59.3°F15.2°C 63% 1.0 mph NNW1.6 kmh NNW 1.0 mph1.6 kmh 30.06 in1017.9 mb 0.00 in0.0 mm 0.00 in0.0 mm 0.00 in0.0 mm
11:28 PM 72.5°F22.5°C 59.4°F15.2°C 63% Calm Calm 1.0 mph1.6 kmh 30.06 in1017.9 mb 0.00 in0.0 mm 0.00 in0.0 mm 0.00 in0.0 mm
11:33 PM 72.4°F22.4°C 58.8°F14.9°C 62% 1.0 mph NNW1.6 kmh NNW 1.0 mph1.6 kmh 30.06 in1017.9 mb 0.00 in0.0 mm 0.00 in0.0 mm 0.00 in0.0 mm
11:38 PM 72.5°F22.5°C 58.3°F14.6°C 61% 1.0 mph NNW1.6 kmh NNW 1.0 mph1.6 kmh 30.06 in1017.9 mb 0.00 in0.0 mm 0.00 in0.0 mm 0.00 in0.0 mm
11:43 PM 72.7°F22.6°C 58.0°F14.4°C 60% 1.0 mph NNW1.6 kmh NNW 1.0 mph1.6 kmh 30.06 in1017.9 mb 0.00 in0.0 mm 0.00 in0.0 mm 0.00 in0.0 mm
11:49 PM 72.9°F22.7°C 57.7°F14.3°C 59% Calm Calm 1.0 mph1.6 kmh 30.06 in1017.9 mb 0.00 in0.0 mm 0.00 in0.0 mm 0.00 in0.0 mm
11:54 PM 72.8°F22.7°C 58.3°F14.6°C 60% Calm Calm 1.0 mph1.6 kmh 30.06 in1017.9 mb 0.00 in0.0 mm 0.00 in0.0 mm 0.00 in0.0 mm
11:58 PM 72.4°F22.4°C 58.4°F14.7°C 61% Calm Calm 1.0 mph1.6 kmh 30.06 in1017.9 mb 0.00 in0.0 mm 0.00 in0.0 mm 0.00 in0.0 mm